Terminal Aerodrome Forecast
Issued by NWS

Home | Current Version | Previous Version | Text Only | Print | Product List | Glossary On
Versions: 1 2 3 4 5 6 7 8 9 10 11 12 13 14 15 16 17 18 19 20 21 22 23 24 25 26 27 28 29 30
435
FTPA31 PHFO 212343
TAFHMK
TAF
PHMK 212343Z 2200/2224 04016G25KT P6SM FEW025
     FM220500 04010G17KT P6SM SCT025
     FM222000 04016G25KT P6SM FEW025=

USA.gov is the U.S. government's official web portal to all federal, state and local government web resources and services.